< < Back
Terminal Aerodrome Forecast


Current Version              Previous Versions:   1  2  3  4  5  6  7  8  9  

Terminal Aerodrome Forecast

472
FTUS42 KCHS 220500
TAFCHS
TAF
KCHS 220534Z 2206/2306 03008KT 5SM -RA BR OVC006
      TEMPO 2209/2213 4SM -DZ OVC004
     FM221500 01005KT 5SM -DZ BR OVC006
     FM230000 04005KT 2SM BR OVC004=

Latest METAR

543
SAUS80 KWBC 220700 CCA
MTRCHS
METAR KCHS 220656Z 05006KT 6SM -RA BR OVC006 08/07 A3006 RMK AO2 SLP179
P0000 T00830072 $


USA.gov is the U.S. government's official web portal to all federal, state and local government web resources and services.